Time;durP1;ratioP1;P1;durP2;ratioP2;P2;SDS_P1;SDS_P2;PMS_P1;PMS_P2;Temp;Humidity;BMP_temperature;BMP_pressure;BME280_temperature;BME280_humidity;BME280_pressure;Samples;Min_cycle;Max_cycle;Signal;HPM_P1;HPM_P2
2023/04/11 00:01:31;;;;;;;2.70;2.60;;;12.10;99.90;;;;;;4897720;29;20544;-79
2023/04/11 00:03:57;;;;;;;2.60;2.43;;;12.10;99.90;;;;;;4897589;29;20435;-79
2023/04/11 00:06:24;;;;;;;2.70;2.50;;;12.10;99.90;;;;;;4897489;29;21136;-79
2023/04/11 00:08:51;;;;;;;4.20;3.30;;;12.00;99.90;;;;;;4895166;29;20784;-79
2023/04/11 00:11:16;;;;;;;3.70;2.90;;;12.10;99.90;;;;;;4897447;29;20516;-79
2023/04/11 00:13:44;;;;;;;2.73;2.50;;;12.10;99.90;;;;;;4898246;29;20532;-79
2023/04/11 00:16:10;;;;;;;3.20;2.90;;;12.20;99.90;;;;;;4895689;29;20419;-79
2023/04/11 00:18:38;;;;;;;2.90;2.70;;;12.20;99.90;;;;;;4892639;29;20451;-79
2023/04/11 00:21:05;;;;;;;2.80;2.57;;;12.20;99.90;;;;;;4897755;29;20428;-79
2023/04/11 00:23:30;;;;;;;2.73;2.63;;;12.20;99.90;;;;;;4898647;29;20833;-79
2023/04/11 00:25:56;;;;;;;2.90;2.70;;;12.10;99.90;;;;;;4897345;29;20451;-80
2023/04/11 00:28:22;;;;;;;3.07;2.97;;;12.20;99.90;;;;;;4898308;29;20274;-79
2023/04/11 00:30:48;;;;;;;2.63;2.53;;;12.20;99.90;;;;;;4899866;29;20213;-79
2023/04/11 00:33:13;;;;;;;2.93;2.60;;;12.20;99.90;;;;;;4897665;29;20177;-79
2023/04/11 00:35:40;;;;;;;2.80;2.60;;;12.20;99.90;;;;;;4899200;29;20183;-79
2023/04/11 00:38:06;;;;;;;3.57;3.27;;;12.20;99.90;;;;;;4898753;29;20285;-79
2023/04/11 00:40:31;;;;;;;3.73;3.07;;;12.20;99.90;;;;;;4899657;29;20491;-79
2023/04/11 00:42:57;;;;;;;3.10;2.80;;;12.20;99.90;;;;;;4899286;29;20755;-79
2023/04/11 00:45:23;;;;;;;2.50;2.30;;;12.20;99.90;;;;;;4881766;29;20191;-79
2023/04/11 00:47:49;;;;;;;3.10;2.90;;;12.20;99.90;;;;;;4881042;29;20184;-79
2023/04/11 00:50:16;;;;;;;3.57;3.27;;;12.20;99.90;;;;;;4898885;29;20885;-79
2023/04/11 00:52:45;;;;;;;2.77;2.57;;;12.20;99.90;;;;;;4899758;29;20446;-79
2023/04/11 00:55:11;;;;;;;2.70;2.50;;;12.10;99.90;;;;;;4893145;29;20566;-79
2023/04/11 00:57:37;;;;;;;2.87;2.53;;;12.20;99.90;;;;;;4899472;29;20477;-79
2023/04/11 01:00:04;;;;;;;4.40;2.70;;;12.20;99.90;;;;;;4899176;29;20873;-80
2023/04/11 01:02:30;;;;;;;5.17;2.83;;;12.20;99.90;;;;;;4899066;29;20409;-79
2023/04/11 01:04:58;;;;;;;4.10;3.00;;;12.20;99.90;;;;;;4898879;29;20431;-79
2023/04/11 01:07:24;;;;;;;2.80;2.60;;;12.30;99.90;;;;;;4898406;29;20704;-79
2023/04/11 01:09:51;;;;;;;3.60;2.90;;;12.30;99.90;;;;;;4898198;29;20423;-79
2023/04/11 01:12:17;;;;;;;3.27;2.60;;;12.20;99.90;;;;;;4897617;29;21356;-79
2023/04/11 01:14:46;;;;;;;5.33;2.97;;;12.20;99.90;;;;;;4897280;29;20795;-79
2023/04/11 01:17:13;;;;;;;2.90;2.70;;;12.30;99.90;;;;;;4897962;29;20499;-79
2023/04/11 01:19:39;;;;;;;2.90;2.70;;;12.30;99.90;;;;;;4882441;29;20486;-79
2023/04/11 01:22:07;;;;;;;3.17;2.97;;;12.30;99.90;;;;;;4898592;29;20416;-80
2023/04/11 01:24:33;;;;;;;3.37;3.17;;;12.30;99.90;;;;;;4898586;29;20423;-79
2023/04/11 01:27:00;;;;;;;4.87;3.00;;;12.30;99.90;;;;;;4898705;29;20428;-80
2023/04/11 01:29:26;;;;;;;4.43;3.07;;;12.40;99.90;;;;;;4897731;29;20294;-80
2023/04/11 01:31:53;;;;;;;3.60;3.10;;;12.30;99.90;;;;;;4897875;29;20823;-79
2023/04/11 01:34:19;;;;;;;3.73;3.27;;;12.40;99.90;;;;;;4897515;29;20540;-80
2023/04/11 01:36:46;;;;;;;3.60;3.30;;;12.40;99.90;;;;;;4898876;29;20418;-81
2023/04/11 01:39:12;;;;;;;4.70;3.27;;;12.50;99.90;;;;;;4880405;29;20834;-80
2023/04/11 01:41:40;;;;;;;4.77;3.27;;;12.40;99.90;;;;;;4898519;29;20412;-80
2023/04/11 01:44:06;;;;;;;3.73;3.37;;;12.40;99.90;;;;;;4897532;29;20444;-80
2023/04/11 01:46:32;;;;;;;3.40;2.87;;;12.40;99.90;;;;;;4898238;29;20519;-79
2023/04/11 01:49:00;;;;;;;4.73;3.37;;;12.50;99.90;;;;;;4898684;29;21027;-80
2023/04/11 01:51:26;;;;;;;9.20;3.70;;;12.50;99.90;;;;;;4897926;29;20411;-79
2023/04/11 01:53:52;;;;;;;4.77;3.70;;;12.50;99.90;;;;;;4881497;29;20416;-79
2023/04/11 01:56:18;;;;;;;3.33;3.10;;;12.40;99.90;;;;;;4897370;29;20521;-80
2023/04/11 01:58:43;;;;;;;3.80;3.50;;;12.50;99.90;;;;;;4898102;29;20220;-79
2023/04/11 02:01:12;;;;;;;6.90;3.57;;;12.50;99.90;;;;;;4897450;29;20300;-79
2023/04/11 02:03:38;;;;;;;6.30;3.80;;;12.50;99.90;;;;;;4881070;29;20425;-79
2023/04/11 02:06:05;;;;;;;4.47;3.60;;;12.50;99.90;;;;;;4897965;29;20450;-80
2023/04/11 02:08:30;;;;;;;4.40;4.00;;;12.50;99.90;;;;;;4896141;29;20459;-79
2023/04/11 02:10:56;;;;;;;6.77;3.60;;;12.50;99.90;;;;;;4896616;29;20426;-80
2023/04/11 02:13:22;;;;;;;6.97;3.53;;;12.50;99.90;;;;;;4897215;29;20416;-79
2023/04/11 02:15:48;;;;;;;5.90;3.70;;;12.50;99.90;;;;;;4897155;29;20203;-80
2023/04/11 02:18:14;;;;;;;4.53;4.13;;;12.50;99.90;;;;;;4895840;29;20534;-80
2023/04/11 02:20:40;;;;;;;5.20;3.67;;;12.50;99.90;;;;;;4898234;29;20230;-80
2023/04/11 02:23:06;;;;;;;6.97;3.40;;;12.40;99.90;;;;;;4897845;29;20440;-80
2023/04/11 02:25:32;;;;;;;7.40;4.00;;;12.40;99.90;;;;;;4896413;29;20635;-80
2023/04/11 02:27:58;;;;;;;6.00;3.67;;;12.40;99.90;;;;;;4897847;29;20963;-80
2023/04/11 02:30:23;;;;;;;7.60;3.97;;;12.40;99.90;;;;;;4896341;29;20420;-79
2023/04/11 02:32:49;;;;;;;7.93;3.80;;;12.40;99.90;;;;;;4897763;29;20179;-79
2023/04/11 02:35:15;;;;;;;6.67;4.57;;;12.40;99.90;;;;;;4879859;29;20611;-80
2023/04/11 02:37:42;;;;;;;6.07;4.00;;;12.40;99.90;;;;;;4897598;29;20199;-80
2023/04/11 02:40:08;;;;;;;6.00;3.83;;;12.40;99.90;;;;;;4897124;29;20455;-80
2023/04/11 02:42:34;;;;;;;6.13;4.27;;;12.40;99.90;;;;;;4897510;29;20415;-80
2023/04/11 02:45:00;;;;;;;5.73;4.10;;;12.50;99.90;;;;;;4896930;29;20436;-80
2023/04/11 02:47:26;;;;;;;9.10;4.90;;;12.40;99.90;;;;;;4896502;29;20416;-80
2023/04/11 02:49:55;;;;;;;7.47;3.87;;;12.40;99.90;;;;;;4897498;29;20426;-79
2023/04/11 02:52:21;;;;;;;8.07;4.30;;;12.40;99.90;;;;;;4896711;29;20417;-79
2023/04/11 02:54:46;;;;;;;9.47;5.20;;;12.40;99.90;;;;;;4887506;29;20440;-79
2023/04/11 02:57:12;;;;;;;6.63;4.60;;;12.30;99.90;;;;;;4896191;29;20230;-79
2023/04/11 02:59:38;;;;;;;9.07;5.07;;;12.30;99.90;;;;;;4897363;29;20274;-79
2023/04/11 03:02:04;;;;;;;9.10;4.60;;;12.20;99.90;;;;;;4897496;29;20182;-80
2023/04/11 03:04:29;;;;;;;7.23;4.50;;;12.20;99.90;;;;;;4879125;29;20206;-81
2023/04/11 03:06:55;;;;;;;10.87;5.00;;;12.10;99.90;;;;;;4897524;29;20542;-80
2023/04/11 03:09:25;;;;;;;7.43;3.77;;;12.20;99.90;;;;;;4896212;29;20187;-82
2023/04/11 03:11:51;;;;;;;8.03;4.07;;;12.20;99.90;;;;;;4897045;29;20426;-83
2023/04/11 03:14:17;;;;;;;6.90;3.83;;;12.10;99.90;;;;;;4879493;29;20762;-83
2023/04/11 03:16:43;;;;;;;8.20;4.13;;;12.10;99.90;;;;;;4897177;29;20181;-82
2023/04/11 03:19:08;;;;;;;11.20;4.80;;;12.10;99.90;;;;;;4897114;29;20206;-83
2023/04/11 03:21:34;;;;;;;10.70;4.67;;;12.00;99.90;;;;;;4896814;29;20183;-84
2023/04/11 03:24:00;;;;;;;4.33;3.90;;;12.00;99.90;;;;;;4896713;29;20234;-83
2023/04/11 03:26:29;;;;;;;6.23;4.00;;;12.00;99.90;;;;;;4896227;29;20175;-82
2023/04/11 03:28:55;;;;;;;12.03;5.00;;;12.00;99.90;;;;;;4880269;29;20438;-82
2023/04/11 03:31:21;;;;;;;8.37;4.60;;;12.00;99.90;;;;;;4896280;29;20415;-81
2023/04/11 03:33:47;;;;;;;8.03;4.57;;;12.00;99.90;;;;;;4896780;29;20187;-81
2023/04/11 03:36:13;;;;;;;10.03;4.47;;;11.90;99.90;;;;;;4896603;29;20192;-80
2023/04/11 03:38:38;;;;;;;7.43;4.50;;;12.00;99.90;;;;;;4897908;29;20214;-81
2023/04/11 03:41:05;;;;;;;8.80;5.37;;;12.00;99.90;;;;;;4903036;29;20463;-81
2023/04/11 03:43:31;;;;;;;8.60;4.30;;;11.90;99.90;;;;;;4904863;29;20524;-81
2023/04/11 03:45:57;;;;;;;6.20;4.00;;;11.90;99.90;;;;;;4905215;29;20400;-81
2023/04/11 03:48:28;;;;;;;13.27;4.57;;;11.90;99.90;;;;;;4903926;29;20494;-81
2023/04/11 03:50:54;;;;;;;12.37;5.80;;;12.00;99.90;;;;;;4906573;29;20289;-82
2023/04/11 03:53:20;;;;;;;11.13;6.30;;;12.00;99.90;;;;;;4905075;29;20437;-81
2023/04/11 03:55:47;;;;;;;10.43;2.80;;;11.90;99.90;;;;;;4901252;29;20497;-81
2023/04/11 03:58:14;;;;;;;9.07;2.93;;;12.00;99.90;;;;;;4900498;29;20430;-80
2023/04/11 04:00:40;;;;;;;9.47;3.23;;;12.00;99.90;;;;;;4899592;29;20412;-81
2023/04/11 04:03:06;;;;;;;8.20;5.43;;;11.90;99.90;;;;;;4900255;29;20437;-81
2023/04/11 04:05:32;;;;;;;9.57;4.60;;;11.90;99.90;;;;;;4900550;29;20503;-82
2023/04/11 04:07:58;;;;;;;8.37;4.03;;;11.90;99.90;;;;;;4885994;29;20439;-81
2023/04/11 04:10:24;;;;;;;9.47;4.07;;;11.90;99.90;;;;;;4902806;29;20684;-81
2023/04/11 04:12:50;;;;;;;11.37;5.07;;;12.00;99.90;;;;;;4902420;29;20639;-81
2023/04/11 04:15:16;;;;;;;10.23;5.23;;;11.90;99.90;;;;;;4899607;29;20550;-81
2023/04/11 04:17:44;;;;;;;8.27;4.70;;;11.90;99.90;;;;;;4899952;29;20495;-81
2023/04/11 04:20:10;;;;;;;11.57;3.90;;;11.90;99.90;;;;;;4899988;29;20207;-81
2023/04/11 04:22:39;;;;;;;8.43;3.90;;;11.80;99.90;;;;;;4899077;29;21057;-81
2023/04/11 04:25:05;;;;;;;8.87;3.80;;;11.80;99.90;;;;;;4899768;29;20964;-81
2023/04/11 04:27:31;;;;;;;12.33;4.40;;;11.80;99.90;;;;;;4897382;29;20458;-81
2023/04/11 04:29:57;;;;;;;11.83;4.60;;;11.60;99.90;;;;;;4882464;29;20444;-81
2023/04/11 04:32:23;;;;;;;11.20;4.60;;;11.60;99.90;;;;;;4894726;29;20521;-81
2023/04/11 04:34:54;;;;;;;12.90;4.30;;;11.60;99.90;;;;;;4899662;29;20469;-82
2023/04/11 04:37:25;;;;;;;8.40;4.80;;;11.60;99.90;;;;;;4899101;29;20407;-81
2023/04/11 04:39:55;;;;;;;8.93;6.27;;;11.60;99.90;;;;;;4898711;29;20973;-82
2023/04/11 04:42:27;;;;;;;7.53;4.73;;;11.60;99.90;;;;;;4898148;29;20463;-81
2023/04/11 04:44:54;;;;;;;7.53;4.50;;;11.70;99.90;;;;;;4898981;29;20439;-81
2023/04/11 04:47:22;;;;;;;12.90;7.00;;;11.70;99.90;;;;;;4885397;29;20435;-80
2023/04/11 04:49:48;;;;;;;8.90;4.10;;;11.70;99.90;;;;;;4880573;29;20978;-81
2023/04/11 04:52:14;;;;;;;8.13;5.67;;;11.80;99.90;;;;;;4882488;29;20423;-81
2023/04/11 04:54:40;;;;;;;11.50;5.00;;;11.80;99.90;;;;;;4880828;29;20328;-81
2023/04/11 04:57:06;;;;;;;7.57;4.50;;;11.80;99.90;;;;;;4898481;29;20482;-81
2023/04/11 04:59:32;;;;;;;11.00;7.27;;;11.70;99.90;;;;;;4896302;29;20479;-81
2023/04/11 05:01:58;;;;;;;7.93;6.47;;;11.70;99.90;;;;;;4878192;29;20788;-81
2023/04/11 05:04:24;;;;;;;6.63;5.40;;;11.70;99.90;;;;;;4894883;29;20438;-81
2023/04/11 05:06:50;;;;;;;8.27;5.13;;;11.70;99.90;;;;;;4899031;29;20189;-81
2023/04/11 05:09:16;;;;;;;8.70;7.83;;;11.60;99.90;;;;;;4897994;29;20415;-81
2023/04/11 05:11:42;;;;;;;11.27;5.30;;;11.60;99.90;;;;;;4890365;29;20183;-81
2023/04/11 05:14:08;;;;;;;15.70;8.00;;;11.60;99.90;;;;;;4897990;29;20503;-81
2023/04/11 05:16:36;;;;;;;11.00;5.47;;;11.60;99.90;;;;;;4881511;29;20443;-81
2023/04/11 05:19:02;;;;;;;9.83;7.67;;;11.60;99.90;;;;;;4898232;29;20458;-81
2023/04/11 05:21:28;;;;;;;7.63;6.60;;;11.50;99.90;;;;;;4898075;29;20415;-81
2023/04/11 05:23:53;;;;;;;9.37;4.60;;;11.50;99.90;;;;;;4898596;29;20181;-81
2023/04/11 05:26:19;;;;;;;9.23;7.33;;;11.40;99.90;;;;;;4897315;29;20614;-81
2023/04/11 05:28:45;;;;;;;7.80;5.47;;;11.50;99.90;;;;;;4880632;29;20278;-81
2023/04/11 05:31:11;;;;;;;7.30;4.73;;;11.50;99.90;;;;;;4882280;29;20457;-81
2023/04/11 05:33:38;;;;;;;10.13;7.13;;;11.50;99.90;;;;;;4899402;29;20500;-81
2023/04/11 05:36:06;;;;;;;6.80;6.20;;;11.50;99.90;;;;;;4881854;29;20258;-81
2023/04/11 05:38:32;;;;;;;16.17;5.30;;;11.50;99.90;;;;;;4879065;29;20511;-81
2023/04/11 05:40:58;;;;;;;9.07;5.20;;;11.50;99.90;;;;;;4895436;29;20525;-81
2023/04/11 05:43:24;;;;;;;10.33;7.40;;;11.50;99.90;;;;;;4887726;29;20588;-81
2023/04/11 05:45:51;;;;;;;12.50;5.87;;;11.50;99.90;;;;;;4898983;29;20505;-81
2023/04/11 05:48:19;;;;;;;9.17;5.57;;;11.50;99.90;;;;;;4899850;29;20450;-81
2023/04/11 05:50:46;;;;;;;9.27;5.77;;;11.50;99.90;;;;;;4869898;29;20445;-81
2023/04/11 05:53:12;;;;;;;8.67;5.87;;;11.50;99.90;;;;;;4881310;29;20560;-81
2023/04/11 05:55:37;;;;;;;8.47;5.13;;;11.50;99.90;;;;;;4896714;29;20474;-81
2023/04/11 05:58:03;;;;;;;11.70;5.20;;;11.50;99.90;;;;;;4873355;29;20426;-81
2023/04/11 06:00:31;;;;;;;6.40;4.60;;;11.50;99.90;;;;;;4886943;29;20222;-81
2023/04/11 06:02:58;;;;;;;10.03;5.40;;;11.50;99.90;;;;;;4898387;29;20443;-81
2023/04/11 06:05:25;;;;;;;6.67;3.87;;;11.60;99.90;;;;;;4896675;29;20429;-81
2023/04/11 06:07:52;;;;;;;8.73;6.80;;;11.60;99.90;;;;;;4897984;29;20455;-83
2023/04/11 06:10:17;;;;;;;7.37;4.73;;;11.70;99.90;;;;;;4885776;29;20443;-83
2023/04/11 06:12:44;;;;;;;9.40;8.00;;;11.70;99.90;;;;;;4865101;29;20440;-82
2023/04/11 06:15:12;;;;;;;7.27;5.67;;;11.60;99.90;;;;;;4896372;29;20945;-81
2023/04/11 06:17:38;;;;;;;6.33;4.30;;;11.70;99.90;;;;;;4898391;29;20413;-83
2023/04/11 06:20:09;;;;;;;6.77;4.50;;;11.60;99.90;;;;;;4898022;29;20821;-82
2023/04/11 06:22:35;;;;;;;9.27;6.27;;;11.60;99.90;;;;;;4896565;29;20436;-84
2023/04/11 06:25:01;;;;;;;10.17;6.03;;;11.90;99.90;;;;;;4899362;29;20432;-83
2023/04/11 06:27:26;;;;;;;7.47;4.97;;;12.20;99.90;;;;;;4898574;29;20450;-82
2023/04/11 06:29:52;;;;;;;8.67;6.90;;;12.60;99.90;;;;;;4896754;29;20232;-82
2023/04/11 06:32:18;;;;;;;8.43;5.30;;;13.00;99.90;;;;;;4882333;29;20938;-83
2023/04/11 06:34:47;;;;;;;7.53;4.80;;;13.30;99.90;;;;;;4900725;29;20579;-83
2023/04/11 06:37:14;;;;;;;10.43;7.67;;;13.60;99.90;;;;;;4856521;29;20461;-83
2023/04/11 06:39:40;;;;;;;7.67;4.70;;;13.70;99.90;;;;;;4883193;29;20474;-84
2023/04/11 06:42:05;;;;;;;8.47;6.10;;;14.00;99.90;;;;;;4902450;29;20438;-90
2023/04/11 06:44:31;;;;;;;12.73;6.50;;;14.00;99.90;;;;;;4889537;29;20710;-83
2023/04/11 06:46:57;;;;;;;8.73;5.40;;;14.20;99.90;;;;;;4896184;29;20305;-79
2023/04/11 06:49:23;;;;;;;9.20;5.37;;;14.40;99.90;;;;;;4879416;29;20192;-78
2023/04/11 06:51:50;;;;;;;6.97;6.47;;;14.50;99.90;;;;;;4897364;29;20450;-79
2023/04/11 06:54:19;;;;;;;8.33;5.30;;;14.60;99.90;;;;;;4898192;29;20852;-79
2023/04/11 06:56:46;;;;;;;7.93;5.30;;;14.70;99.90;;;;;;4876757;29;21079;-78
2023/04/11 06:59:12;;;;;;;8.40;6.30;;;14.70;99.90;;;;;;4879390;29;20472;-80
2023/04/11 07:01:38;;;;;;;7.97;6.00;;;14.90;98.40;;;;;;4882813;29;20482;-81
2023/04/11 07:04:05;;;;;;;9.27;5.80;;;14.60;95.40;;;;;;4877621;29;20511;-82
2023/04/11 07:06:34;;;;;;;9.57;5.00;;;14.10;95.20;;;;;;4852875;29;20915;-83
2023/04/11 07:09:04;;;;;;;10.60;5.07;;;13.70;95.90;;;;;;4884024;29;20450;-83
2023/04/11 07:11:30;;;;;;;10.30;6.50;;;13.30;96.10;;;;;;4877404;29;20529;-83
2023/04/11 07:13:58;;;;;;;6.43;5.50;;;13.20;97.30;;;;;;4878757;29;20548;-84
2023/04/11 07:16:25;;;;;;;10.40;5.13;;;12.80;97.20;;;;;;4899541;29;20941;-80
2023/04/11 07:18:55;;;;;;;7.17;4.20;;;12.50;97.50;;;;;;4884876;29;20462;-84
2023/04/11 07:21:21;;;;;;;7.20;5.50;;;12.40;98.00;;;;;;4886366;29;20503;-84
2023/04/11 07:23:47;;;;;;;7.77;3.80;;;12.30;99.40;;;;;;4892533;29;20664;-83
2023/04/11 07:26:15;;;;;;;5.17;4.60;;;12.20;99.10;;;;;;4883068;29;20800;-84
2023/04/11 07:28:43;;;;;;;7.07;3.77;;;12.20;98.00;;;;;;4872328;29;21031;-84
2023/04/11 07:31:10;;;;;;;5.53;3.37;;;12.10;97.90;;;;;;4874841;29;20437;-84
2023/04/11 07:33:36;;;;;;;8.20;5.60;;;12.00;96.90;;;;;;4873992;29;20435;-83
2023/04/11 07:36:05;;;;;;;4.30;3.80;;;11.90;96.60;;;;;;4874882;29;20484;-81
2023/04/11 07:38:33;;;;;;;5.83;3.50;;;11.90;96.70;;;;;;4877269;29;20519;-82
2023/04/11 07:41:01;;;;;;;5.50;3.30;;;11.90;96.40;;;;;;4878436;29;20444;-84
2023/04/11 07:43:28;;;;;;;4.57;3.27;;;12.00;97.90;;;;;;4881465;29;20437;-84
2023/04/11 07:45:55;;;;;;;5.23;3.30;;;12.10;98.40;;;;;;4865094;29;20461;-83
2023/04/11 07:48:21;;;;;;;6.43;3.70;;;12.10;98.20;;;;;;4881683;29;20442;-84
2023/04/11 07:50:47;;;;;;;4.60;3.60;;;12.10;97.20;;;;;;4881222;29;20424;-84
2023/04/11 07:53:13;;;;;;;7.87;4.00;;;12.10;97.80;;;;;;4881517;29;20404;-84
2023/04/11 07:55:39;;;;;;;6.90;4.07;;;12.10;97.90;;;;;;4886837;29;20465;-85
2023/04/11 07:58:05;;;;;;;7.07;3.90;;;12.20;97.20;;;;;;4898636;29;20643;-84
2023/04/11 08:00:32;;;;;;;4.10;3.47;;;12.10;97.00;;;;;;4897602;29;20511;-85
2023/04/11 08:03:01;;;;;;;8.37;3.90;;;12.10;96.60;;;;;;4897671;29;20510;-84
2023/04/11 08:05:29;;;;;;;7.53;3.77;;;12.20;97.20;;;;;;4899698;29;20427;-77
2023/04/11 08:07:55;;;;;;;4.23;3.87;;;12.30;96.30;;;;;;4903278;29;20461;-84
2023/04/11 08:10:21;;;;;;;6.60;4.80;;;12.40;97.50;;;;;;4894198;29;20983;-85
2023/04/11 08:12:51;;;;;;;8.13;6.00;;;12.50;98.00;;;;;;4895660;29;20978;-83
2023/04/11 08:15:17;;;;;;;7.83;4.50;;;12.60;97.30;;;;;;4899766;29;20780;-81
2023/04/11 08:17:48;;;;;;;8.10;3.90;;;12.70;96.80;;;;;;4898294;29;20439;-82
2023/04/11 08:20:15;;;;;;;6.30;5.13;;;12.70;96.50;;;;;;4878346;29;20485;-82
2023/04/11 08:22:45;;;;;;;6.77;3.90;;;12.70;96.70;;;;;;4868410;29;20458;-82
2023/04/11 08:25:21;;;;;;;10.53;5.30;;;12.80;96.90;;;;;;4884551;29;20393;-82
2023/04/11 08:27:47;;;;;;;7.80;5.83;;;12.90;96.30;;;;;;4900107;29;21274;-82
2023/04/11 08:30:14;;;;;;;8.77;5.73;;;13.00;96.00;;;;;;4884696;29;20781;-82
2023/04/11 08:32:41;;;;;;;5.33;4.83;;;13.10;97.20;;;;;;4882601;29;20475;-82
2023/04/11 08:35:09;;;;;;;6.53;5.03;;;13.20;95.00;;;;;;4900551;29;20507;-81
2023/04/11 08:37:35;;;;;;;5.70;5.03;;;13.10;95.20;;;;;;4898977;29;20524;-82
2023/04/11 08:40:05;;;;;;;7.27;4.80;;;13.20;95.80;;;;;;4883183;29;20791;-81
2023/04/11 08:42:32;;;;;;;8.00;6.03;;;13.20;94.80;;;;;;4898199;29;20263;-82
2023/04/11 08:45:03;;;;;;;10.30;5.10;;;13.30;94.40;;;;;;4883299;29;20464;-82
2023/04/11 08:47:29;;;;;;;6.23;5.63;;;13.30;95.10;;;;;;4898037;29;20818;-82
2023/04/11 08:49:55;;;;;;;8.20;5.80;;;13.40;95.00;;;;;;4899257;29;20906;-82
2023/04/11 08:52:22;;;;;;;6.90;6.20;;;13.40;94.20;;;;;;4899834;29;20439;-82
2023/04/11 08:54:50;;;;;;;6.60;3.77;;;13.50;94.20;;;;;;4880927;29;20487;-82
2023/04/11 08:57:31;;;;;;;6.47;4.20;;;13.60;95.10;;;;;;4881760;29;20482;-82
2023/04/11 09:00:01;;;;;;;6.30;5.80;;;13.60;94.60;;;;;;4882426;29;20478;-81
2023/04/11 09:02:26;;;;;;;5.27;4.83;;;13.50;92.50;;;;;;4899554;29;20420;-81
2023/04/11 09:04:53;;;;;;;4.33;3.40;;;13.50;90.70;;;;;;4881570;29;20410;-82
2023/04/11 09:07:19;;;;;;;3.63;3.10;;;13.40;90.90;;;;;;4881923;29;22196;-82
2023/04/11 09:09:45;;;;;;;4.37;3.93;;;13.30;90.40;;;;;;4897425;29;20514;-82
2023/04/11 09:12:12;;;;;;;4.93;4.07;;;13.30;92.30;;;;;;4882416;29;20444;-81
2023/04/11 09:14:38;;;;;;;5.37;4.00;;;13.30;91.80;;;;;;4898574;29;20414;-82
2023/04/11 09:17:12;;;;;;;6.43;3.73;;;13.40;91.60;;;;;;4897446;29;20438;-81
2023/04/11 09:19:39;;;;;;;3.30;3.00;;;13.40;90.40;;;;;;4881239;29;20459;-82
2023/04/11 09:22:07;;;;;;;3.53;3.10;;;13.60;91.70;;;;;;4882614;29;20427;-82
2023/04/11 09:24:34;;;;;;;5.00;4.40;;;13.80;90.90;;;;;;4898749;29;20418;-81
2023/04/11 09:27:15;;;;;;;4.30;3.97;;;13.70;88.30;;;;;;4881171;29;20442;-82
2023/04/11 09:29:44;;;;;;;3.43;3.10;;;13.50;86.00;;;;;;4880923;29;20533;-82
2023/04/11 09:32:28;;;;;;;7.40;2.93;;;13.60;88.50;;;;;;4899017;29;20416;-82
2023/04/11 09:35:14;;;;;;;4.00;2.90;;;13.80;91.30;;;;;;4898718;29;20411;-82
2023/04/11 09:37:48;;;;;;;5.57;4.23;;;14.00;87.70;;;;;;4896914;29;20914;-81
2023/04/11 09:40:16;;;;;;;3.57;2.90;;;14.10;88.40;;;;;;4881572;29;20503;-82
2023/04/11 09:42:42;;;;;;;3.43;3.20;;;14.30;87.10;;;;;;4881035;29;20514;-82
2023/04/11 09:45:15;;;;;;;4.50;4.10;;;14.30;81.40;;;;;;4882327;29;20416;-82
2023/04/11 09:47:41;;;;;;;5.57;4.07;;;14.40;84.30;;;;;;4897121;29;20427;-81
2023/04/11 09:50:07;;;;;;;2.80;2.50;;;14.40;82.00;;;;;;4897946;29;20435;-81
2023/04/11 09:52:33;;;;;;;2.73;2.30;;;14.40;81.90;;;;;;4881380;29;20509;-82
2023/04/11 09:54:59;;;;;;;7.53;2.97;;;14.50;80.00;;;;;;4898066;29;20509;-81
2023/04/11 09:57:26;;;;;;;3.20;2.90;;;14.70;80.10;;;;;;4898637;29;20436;-81
2023/04/11 09:59:54;;;;;;;3.83;3.00;;;14.90;80.40;;;;;;4896613;29;20878;-83
2023/04/11 10:02:20;;;;;;;6.50;3.37;;;15.00;80.10;;;;;;4880824;29;20440;-82
2023/04/11 10:04:46;;;;;;;4.17;3.80;;;15.00;79.10;;;;;;4895860;29;20500;-82
2023/04/11 10:07:13;;;;;;;3.90;3.30;;;15.10;78.30;;;;;;4897102;29;20531;-82
2023/04/11 10:09:44;;;;;;;5.40;2.83;;;15.10;78.20;;;;;;4896244;29;20859;-82
2023/04/11 10:12:10;;;;;;;4.50;2.70;;;15.10;78.40;;;;;;4896909;29;20844;-82
2023/04/11 10:14:36;;;;;;;4.80;2.93;;;15.00;76.40;;;;;;4881006;29;20447;-83
2023/04/11 10:17:16;;;;;;;3.70;3.10;;;15.00;77.30;;;;;;4865702;29;20460;-81
2023/04/11 10:19:44;;;;;;;3.20;2.67;;;15.10;78.60;;;;;;4897168;29;20220;-82
2023/04/11 10:22:30;;;;;;;5.90;4.17;;;15.20;78.90;;;;;;4897970;29;20452;-81
2023/04/11 10:25:23;;;;;;;4.00;2.83;;;15.20;77.50;;;;;;4880217;29;20425;-82
2023/04/11 10:28:05;;;;;;;4.87;3.57;;;15.00;77.00;;;;;;4896820;29;20542;-82
2023/04/11 10:30:40;;;;;;;4.83;3.53;;;14.90;77.40;;;;;;4897471;29;20451;-81
2023/04/11 10:33:14;;;;;;;5.53;3.80;;;15.00;79.00;;;;;;4898047;29;20415;-83
2023/04/11 10:36:04;;;;;;;4.27;3.00;;;15.00;78.20;;;;;;4897527;29;20412;-83
2023/04/11 10:38:50;;;;;;;4.60;4.20;;;14.80;74.40;;;;;;4897879;29;20873;-82
2023/04/11 10:41:24;;;;;;;4.13;3.43;;;14.50;74.90;;;;;;4898092;29;20443;-83
2023/04/11 10:43:50;;;;;;;4.50;3.37;;;14.40;78.00;;;;;;4897659;29;20443;-83
2023/04/11 10:46:24;;;;;;;5.63;3.40;;;14.40;80.30;;;;;;4901801;29;20418;-82
2023/04/11 10:49:01;;;;;;;4.13;3.67;;;14.50;79.30;;;;;;4888902;29;20422;-82
2023/04/11 10:51:29;;;;;;;4.20;3.77;;;14.40;79.30;;;;;;4881365;29;20444;-82
2023/04/11 10:53:58;;;;;;;7.37;4.77;;;14.30;80.20;;;;;;4880745;29;20471;-82
2023/04/11 10:56:42;;;;;;;5.37;3.60;;;14.30;79.90;;;;;;4881187;29;20474;-82
2023/04/11 10:59:38;;;;;;;4.50;4.10;;;14.20;78.50;;;;;;4881659;29;20860;-82
2023/04/11 11:02:03;;;;;;;3.83;3.30;;;14.30;76.80;;;;;;4866338;29;20440;-82
2023/04/11 11:04:34;;;;;;;3.47;3.17;;;14.40;76.80;;;;;;4862782;29;20901;-82
2023/04/11 11:07:02;;;;;;;3.53;3.23;;;14.70;75.50;;;;;;4879074;29;20268;-83
2023/04/11 11:09:29;;;;;;;6.20;3.60;;;14.90;72.90;;;;;;4879144;29;20449;-82
2023/04/11 11:12:14;;;;;;;5.40;3.80;;;15.10;74.20;;;;;;4895877;29;20443;-83
2023/04/11 11:14:45;;;;;;;8.90;4.50;;;15.30;74.00;;;;;;4897148;29;20410;-82
2023/04/11 11:17:15;;;;;;;7.10;4.33;;;15.50;72.70;;;;;;4881488;29;20433;-82
2023/04/11 11:19:45;;;;;;;5.67;3.57;;;15.70;74.90;;;;;;4905427;29;20472;-83
2023/04/11 11:22:15;;;;;;;4.90;3.70;;;15.80;70.80;;;;;;4886576;29;20428;-82
2023/04/11 11:24:41;;;;;;;5.80;4.90;;;15.80;70.10;;;;;;4885414;29;20524;-84
2023/04/11 11:27:17;;;;;;;6.57;4.47;;;15.70;69.00;;;;;;4885859;29;20478;-82
2023/04/11 11:29:43;;;;;;;5.80;4.50;;;15.80;71.60;;;;;;4884994;29;20192;-84
2023/04/11 11:32:21;;;;;;;4.93;4.30;;;16.00;69.30;;;;;;4885591;29;20439;-82
2023/04/11 11:34:47;;;;;;;5.43;5.13;;;15.90;67.60;;;;;;4900456;29;20159;-82
2023/04/11 11:37:13;;;;;;;6.57;5.50;;;15.90;67.60;;;;;;4890492;29;20438;-84
2023/04/11 11:39:39;;;;;;;4.97;4.60;;;15.90;67.80;;;;;;4890333;29;20210;-85
2023/04/11 11:42:05;;;;;;;4.97;4.50;;;15.90;67.60;;;;;;4922441;29;20905;-83
2023/04/11 11:44:31;;;;;;;4.60;4.20;;;15.90;66.60;;;;;;4907373;29;20428;-82
2023/04/11 11:47:15;;;;;;;4.47;3.87;;;16.10;66.50;;;;;;4907607;29;20450;-82
2023/04/11 11:49:46;;;;;;;4.03;3.13;;;16.20;64.60;;;;;;4924171;29;20855;-84
2023/04/11 11:52:36;;;;;;;3.93;3.53;;;16.40;67.00;;;;;;4887649;29;20439;-83
2023/04/11 11:55:05;;;;;;;5.50;3.80;;;16.50;62.20;;;;;;4903727;29;20412;-82
2023/04/11 11:57:43;;;;;;;4.67;4.37;;;16.50;60.20;;;;;;4906104;29;20437;-83
2023/04/11 12:00:10;;;;;;;4.43;4.10;;;16.60;60.80;;;;;;4900484;29;20481;-83
2023/04/11 12:02:43;;;;;;;3.17;2.97;;;16.60;59.00;;;;;;4905677;29;20407;-83
2023/04/11 12:05:11;;;;;;;5.60;3.67;;;16.70;60.30;;;;;;4906466;29;20896;-83
2023/04/11 12:07:39;;;;;;;3.73;3.43;;;16.70;59.30;;;;;;4901274;29;20422;-82
2023/04/11 12:10:10;;;;;;;6.10;4.30;;;16.70;63.70;;;;;;4902705;29;20427;-83
2023/04/11 12:12:43;;;;;;;4.67;4.27;;;16.60;60.10;;;;;;4904900;29;20462;-81
2023/04/11 12:15:10;;;;;;;4.50;3.77;;;16.60;63.30;;;;;;4889733;29;20423;-81
2023/04/11 12:17:37;;;;;;;5.00;3.93;;;16.60;63.20;;;;;;4887982;29;20420;-83
2023/04/11 12:20:06;;;;;;;4.13;3.83;;;16.70;61.50;;;;;;4886692;29;20471;-83
2023/04/11 12:22:33;;;;;;;5.00;4.60;;;16.90;64.10;;;;;;4873183;29;20435;-81
2023/04/11 12:25:09;;;;;;;4.27;3.97;;;17.00;61.00;;;;;;4888067;29;20421;-81
2023/04/11 12:27:39;;;;;;;3.83;3.63;;;17.10;60.80;;;;;;4887780;29;20424;-82
2023/04/11 12:30:06;;;;;;;4.30;3.70;;;17.00;58.40;;;;;;4890391;29;20865;-84
2023/04/11 12:32:34;;;;;;;7.60;3.60;;;16.90;59.00;;;;;;4929155;29;20422;-81
2023/04/11 12:35:00;;;;;;;4.50;4.07;;;16.90;61.80;;;;;;4910990;29;20506;-82
2023/04/11 12:37:26;;;;;;;4.77;4.30;;;17.00;60.60;;;;;;4908886;29;20494;-83
2023/04/11 12:39:53;;;;;;;3.77;3.47;;;17.20;61.80;;;;;;4927101;29;20458;-82
2023/04/11 12:42:19;;;;;;;5.10;4.60;;;17.30;59.30;;;;;;4909381;29;20608;-83
2023/04/11 12:44:46;;;;;;;5.27;3.60;;;17.30;59.40;;;;;;4908758;29;20415;-83
2023/04/11 12:47:12;;;;;;;4.63;3.60;;;17.20;58.50;;;;;;4908293;29;20242;-84
2023/04/11 12:49:39;;;;;;;3.80;3.53;;;17.00;57.40;;;;;;4905797;29;20416;-83